createdAt,value
2022-10-05T00:00:20.588Z,7.81
2022-10-05T00:01:20.662Z,7.86
2022-10-05T00:02:20.561Z,7.82
2022-10-05T00:03:20.550Z,7.71
2022-10-05T00:04:20.538Z,7.68
2022-10-05T00:06:20.510Z,7.63
2022-10-05T00:07:20.499Z,7.60
2022-10-05T00:08:20.506Z,7.50
2022-10-05T00:09:20.473Z,7.58
2022-10-05T00:10:20.457Z,7.63
2022-10-05T00:11:20.446Z,7.60
2022-10-05T00:12:20.433Z,7.43
2022-10-05T00:13:20.420Z,7.31
2022-10-05T00:14:20.406Z,7.25
2022-10-05T00:15:20.394Z,7.20
2022-10-05T00:17:20.368Z,7.23
2022-10-05T00:18:20.353Z,7.24
2022-10-05T00:19:20.342Z,7.27
2022-10-05T00:20:20.329Z,7.23
2022-10-05T00:21:20.316Z,7.16
2022-10-05T00:22:20.305Z,7.03
2022-10-05T00:23:20.290Z,6.91
2022-10-05T00:24:20.299Z,6.80
2022-10-05T00:25:20.275Z,6.79
2022-10-05T00:26:20.250Z,6.70
2022-10-05T00:28:20.286Z,6.79
2022-10-05T00:29:20.213Z,7.12
2022-10-05T00:30:20.200Z,7.40
2022-10-05T00:31:20.245Z,7.55
2022-10-05T00:32:20.172Z,7.61
2022-10-05T00:33:20.159Z,7.61
2022-10-05T00:34:20.149Z,7.57
2022-10-05T00:35:20.134Z,7.50
2022-10-05T00:36:20.119Z,7.46
2022-10-05T00:37:20.107Z,7.37
2022-10-05T00:39:20.083Z,7.25
2022-10-05T00:40:20.204Z,7.42
2022-10-05T00:41:20.056Z,7.57
2022-10-05T00:42:20.041Z,7.66
2022-10-05T00:43:20.042Z,7.76
2022-10-05T00:44:20.022Z,7.79
2022-10-05T00:45:20.004Z,7.76
2022-10-05T00:46:20.046Z,7.74
2022-10-05T00:47:19.977Z,7.76
2022-10-05T00:48:19.965Z,7.74
2022-10-05T00:50:19.939Z,7.78
2022-10-05T00:51:19.926Z,7.79
2022-10-05T00:52:19.911Z,7.78
2022-10-05T00:53:19.907Z,7.79
2022-10-05T00:54:19.885Z,7.81
2022-10-05T00:55:19.875Z,7.82
2022-10-05T00:56:19.889Z,7.76
2022-10-05T00:57:19.847Z,7.67
2022-10-05T00:58:19.833Z,7.66
2022-10-05T00:59:19.822Z,7.55
2022-10-05T01:01:19.867Z,7.46
2022-10-05T01:02:19.879Z,7.45
2022-10-05T01:03:19.776Z,7.46
2022-10-05T01:04:19.753Z,7.40
2022-10-05T01:05:19.742Z,7.40
2022-10-05T01:06:19.728Z,7.48
2022-10-05T01:07:19.717Z,7.48
2022-10-05T01:08:19.702Z,7.49
2022-10-05T01:09:19.690Z,7.48
2022-10-05T01:10:19.675Z,7.49
2022-10-05T01:12:19.674Z,7.64
2022-10-05T01:13:19.636Z,7.66
2022-10-05T01:14:19.624Z,7.67
2022-10-05T01:15:19.611Z,7.68
2022-10-05T01:16:19.654Z,7.64
2022-10-05T01:17:19.585Z,7.60
2022-10-05T01:18:19.572Z,7.49
2022-10-05T01:19:19.559Z,7.52
2022-10-05T01:20:19.546Z,7.53
2022-10-05T01:21:19.532Z,7.57
2022-10-05T01:23:19.505Z,7.60
2022-10-05T01:24:19.494Z,7.60
2022-10-05T01:25:19.480Z,7.60
2022-10-05T01:26:19.467Z,7.55
2022-10-05T01:27:19.454Z,7.49
2022-10-05T01:28:19.539Z,7.46
2022-10-05T01:29:19.426Z,7.42
2022-10-05T01:30:19.416Z,7.40
2022-10-05T01:31:19.545Z,7.39
2022-10-05T01:32:19.389Z,7.31
2022-10-05T01:34:19.367Z,7.28
2022-10-05T01:35:19.347Z,7.28
2022-10-05T01:36:19.337Z,7.25
2022-10-05T01:37:19.321Z,7.20
2022-10-05T01:38:19.313Z,7.12
2022-10-05T01:39:19.297Z,7.07
2022-10-05T01:40:19.288Z,7.03
2022-10-05T01:41:19.270Z,6.98
2022-10-05T01:42:19.258Z,6.98
2022-10-05T01:43:19.244Z,6.97
2022-10-05T01:45:19.218Z,6.94
2022-10-05T01:46:19.276Z,6.98
2022-10-05T01:47:19.191Z,6.91
2022-10-05T01:48:19.180Z,6.94
2022-10-05T01:49:19.166Z,6.88
2022-10-05T01:50:19.154Z,6.87
2022-10-05T01:51:19.139Z,6.80
2022-10-05T01:52:19.127Z,6.75
2022-10-05T01:53:19.115Z,6.73
2022-10-05T01:54:19.101Z,6.65
2022-10-05T01:56:19.076Z,6.57
2022-10-05T01:57:19.064Z,6.60
2022-10-05T01:58:19.050Z,6.65
2022-10-05T01:59:19.041Z,6.68
2022-10-05T02:00:19.052Z,6.72
2022-10-05T02:01:19.132Z,6.73
2022-10-05T02:02:19.104Z,6.76
2022-10-05T02:03:18.984Z,6.78
2022-10-05T02:04:37.253Z,6.79
2022-10-05T02:05:18.958Z,6.83
2022-10-05T02:07:18.932Z,6.91
2022-10-05T02:09:18.906Z,6.99
2022-10-05T02:10:18.896Z,6.97
2022-10-05T02:11:18.879Z,6.97
2022-10-05T02:12:18.868Z,6.97
2022-10-05T02:13:18.855Z,6.98
2022-10-05T02:14:18.842Z,6.99
2022-10-05T02:15:18.827Z,6.99
2022-10-05T02:16:18.909Z,6.98
2022-10-05T02:18:18.789Z,7.03
2022-10-05T02:19:18.775Z,7.07
2022-10-05T02:20:18.763Z,7.15
2022-10-05T02:21:18.753Z,7.20
2022-10-05T02:22:18.737Z,7.27
2022-10-05T02:23:18.724Z,7.34
2022-10-05T02:24:18.711Z,7.40
2022-10-05T02:25:18.697Z,7.45
2022-10-05T02:26:18.686Z,7.49
2022-10-05T02:27:18.671Z,7.52
2022-10-05T02:29:18.645Z,7.61
2022-10-05T02:30:18.634Z,7.64
2022-10-05T02:31:18.678Z,7.66
2022-10-05T02:32:18.631Z,7.78
2022-10-05T02:33:18.594Z,7.82
2022-10-05T02:34:18.582Z,7.81
2022-10-05T02:35:18.569Z,7.82
2022-10-05T02:36:18.559Z,7.86
2022-10-05T02:37:18.540Z,7.94
2022-10-05T02:38:18.528Z,7.89
2022-10-05T02:40:18.502Z,7.85
2022-10-05T02:41:18.488Z,7.79
2022-10-05T02:42:18.476Z,7.85
2022-10-05T02:43:18.462Z,7.85
2022-10-05T02:44:18.449Z,7.94
2022-10-05T02:45:18.436Z,7.91
2022-10-05T02:46:18.503Z,7.92
2022-10-05T02:47:18.410Z,7.86
2022-10-05T02:48:18.421Z,7.86
2022-10-05T02:49:18.385Z,7.86
2022-10-05T02:51:18.357Z,7.76
2022-10-05T02:52:18.345Z,7.70
2022-10-05T02:53:18.338Z,7.71
2022-10-05T02:54:18.320Z,7.66
2022-10-05T02:55:18.305Z,7.61
2022-10-05T02:56:18.295Z,7.60
2022-10-05T02:57:18.280Z,7.58
2022-10-05T02:58:18.267Z,7.63
2022-10-05T02:59:18.256Z,7.63
2022-10-05T03:00:18.242Z,7.61
2022-10-05T03:02:18.257Z,7.64
2022-10-05T03:03:18.201Z,7.66
2022-10-05T03:04:18.212Z,7.64
2022-10-05T03:05:18.174Z,7.67
2022-10-05T03:06:18.164Z,7.66
2022-10-05T03:07:18.147Z,7.70
2022-10-05T03:08:18.137Z,7.67
2022-10-05T03:09:18.122Z,7.73
2022-10-05T03:10:18.110Z,7.74
2022-10-05T03:11:18.107Z,7.73
2022-10-05T03:13:18.069Z,7.71
2022-10-05T03:14:18.057Z,7.68
2022-10-05T03:15:18.059Z,7.67
2022-10-05T03:16:18.122Z,7.73
2022-10-05T03:17:18.022Z,7.68
2022-10-05T03:18:18.015Z,7.64
2022-10-05T03:19:17.990Z,7.70
2022-10-05T03:20:18.002Z,7.63
2022-10-05T03:21:17.963Z,7.55
2022-10-05T03:22:17.953Z,7.57
2022-10-05T03:24:17.926Z,7.63
2022-10-05T03:25:17.911Z,7.53
2022-10-05T03:26:17.900Z,7.49
2022-10-05T03:27:17.888Z,7.53
2022-10-05T03:28:17.960Z,7.53
2022-10-05T03:29:17.860Z,7.55
2022-10-05T03:30:17.849Z,7.55
2022-10-05T03:31:17.948Z,7.50
2022-10-05T03:32:17.821Z,7.52
2022-10-05T03:33:17.807Z,7.53
2022-10-05T03:35:17.783Z,7.46
2022-10-05T03:36:17.905Z,7.48
2022-10-05T03:37:17.757Z,7.40
2022-10-05T03:38:17.743Z,7.42
2022-10-05T03:39:17.729Z,7.43
2022-10-05T03:40:17.717Z,7.43
2022-10-05T03:41:17.705Z,7.42
2022-10-05T03:42:17.693Z,7.31
2022-10-05T03:43:17.678Z,7.31
2022-10-05T03:44:17.666Z,7.39
2022-10-05T03:46:17.726Z,7.37
2022-10-05T03:47:17.624Z,7.27
2022-10-05T03:48:17.613Z,7.43
2022-10-05T03:49:17.599Z,7.52
2022-10-05T03:50:17.592Z,7.63
2022-10-05T03:51:17.572Z,7.50
2022-10-05T03:52:17.582Z,7.43
2022-10-05T03:53:17.546Z,7.42
2022-10-05T03:54:17.534Z,7.40
2022-10-05T03:55:17.520Z,7.37
2022-10-05T03:57:17.493Z,7.31
2022-10-05T03:58:17.481Z,7.39
2022-10-05T03:59:17.467Z,7.45
2022-10-05T04:00:17.470Z,7.49
2022-10-05T04:01:17.473Z,7.52
2022-10-05T04:02:17.498Z,7.55
2022-10-05T04:03:17.416Z,7.64
2022-10-05T04:04:17.403Z,7.63
2022-10-05T04:05:17.390Z,7.64
2022-10-05T04:06:17.378Z,7.68
2022-10-05T04:08:17.373Z,7.86
2022-10-05T04:09:17.339Z,7.81
2022-10-05T04:10:17.324Z,7.78
2022-10-05T04:11:17.311Z,7.71
2022-10-05T04:12:17.298Z,7.74
2022-10-05T04:13:17.283Z,7.78
2022-10-05T04:14:17.272Z,7.79
2022-10-05T04:15:19.056Z,7.86
2022-10-05T04:16:17.323Z,7.89
2022-10-05T04:17:17.231Z,7.91
2022-10-05T04:19:17.206Z,7.86
2022-10-05T04:20:17.194Z,7.91
2022-10-05T04:21:20.171Z,7.91
2022-10-05T04:22:19.168Z,7.99
2022-10-05T04:23:17.153Z,8.00
2022-10-05T04:24:17.163Z,8.03
2022-10-05T04:25:17.126Z,8.07
2022-10-05T04:26:17.114Z,8.15
2022-10-05T04:27:17.101Z,8.15
2022-10-05T04:28:17.143Z,8.11
2022-10-05T04:30:17.067Z,8.01
2022-10-05T04:31:17.094Z,7.99
2022-10-05T04:32:17.038Z,7.99
2022-10-05T04:33:17.021Z,7.89
2022-10-05T04:34:17.009Z,7.86
2022-10-05T04:35:16.997Z,7.82
2022-10-05T04:36:16.985Z,7.76
2022-10-05T04:37:16.971Z,7.71
2022-10-05T04:38:16.959Z,7.73
2022-10-05T04:39:16.949Z,7.76
2022-10-05T04:41:16.917Z,7.79
2022-10-05T04:42:16.906Z,7.76
2022-10-05T04:43:16.891Z,7.82
2022-10-05T04:44:16.878Z,7.79
2022-10-05T04:45:16.865Z,7.79
2022-10-05T04:46:16.970Z,7.76
2022-10-05T04:47:16.839Z,7.74
2022-10-05T04:48:16.833Z,7.74
2022-10-05T04:49:16.812Z,7.76
2022-10-05T04:50:16.800Z,7.74
2022-10-05T04:52:16.775Z,7.73
2022-10-05T04:53:16.773Z,7.76
2022-10-05T04:54:16.749Z,7.82
2022-10-05T04:55:16.738Z,7.84
2022-10-05T04:56:16.746Z,7.81
2022-10-05T04:57:16.709Z,7.73
2022-10-05T04:58:16.696Z,7.73
2022-10-05T04:59:16.682Z,7.71
2022-10-05T05:00:16.674Z,7.78
2022-10-05T05:01:16.746Z,7.73
2022-10-05T05:03:16.629Z,7.79
2022-10-05T05:04:16.655Z,7.85
2022-10-05T05:05:16.603Z,7.82
2022-10-05T05:06:18.069Z,7.79
2022-10-05T05:07:16.577Z,7.81
2022-10-05T05:08:16.566Z,7.78
2022-10-05T05:09:16.569Z,7.76
2022-10-05T05:10:16.542Z,7.70
2022-10-05T05:11:19.994Z,7.67
2022-10-05T05:12:16.556Z,7.70
2022-10-05T05:14:16.489Z,7.74
2022-10-05T05:15:16.471Z,7.79
2022-10-05T05:16:16.577Z,7.84
2022-10-05T05:17:16.447Z,7.84
2022-10-05T05:18:16.440Z,7.88
2022-10-05T05:19:16.419Z,7.88
2022-10-05T05:20:16.408Z,7.91
2022-10-05T05:21:16.395Z,7.89
2022-10-05T05:22:16.382Z,7.85
2022-10-05T05:23:16.367Z,7.78
2022-10-05T05:25:16.343Z,7.88
2022-10-05T05:26:16.334Z,7.88
2022-10-05T05:27:16.317Z,7.88
2022-10-05T05:28:16.423Z,7.82
2022-10-05T05:29:16.292Z,7.78
2022-10-05T05:30:16.278Z,7.73
2022-10-05T05:31:16.368Z,7.73
2022-10-05T05:32:16.254Z,7.73
2022-10-05T05:33:16.241Z,7.81
2022-10-05T05:34:16.232Z,7.74
2022-10-05T05:36:20.727Z,7.78
2022-10-05T05:37:16.190Z,7.84
2022-10-05T05:38:16.187Z,7.84
2022-10-05T05:39:16.176Z,7.89
2022-10-05T05:40:16.156Z,7.96
2022-10-05T05:41:16.140Z,7.94
2022-10-05T05:42:16.126Z,7.97
2022-10-05T05:43:16.116Z,8.00
2022-10-05T05:44:16.125Z,8.04
2022-10-05T05:45:16.089Z,8.04
2022-10-05T05:47:16.232Z,8.09
2022-10-05T05:48:16.051Z,8.00
2022-10-05T05:49:16.037Z,7.97
2022-10-05T05:50:16.029Z,7.91
2022-10-05T05:51:16.013Z,8.00
2022-10-05T05:52:15.998Z,7.99
2022-10-05T05:53:15.987Z,8.03
2022-10-05T05:54:15.973Z,8.06
2022-10-05T05:55:15.962Z,8.04
2022-10-05T05:56:15.947Z,8.07
2022-10-05T05:58:15.945Z,8.17
2022-10-05T05:59:15.913Z,8.21
2022-10-05T06:00:15.946Z,8.29
2022-10-05T06:01:31.689Z,8.40
2022-10-05T06:02:15.960Z,8.45
2022-10-05T06:03:16.063Z,8.47
2022-10-05T06:04:15.845Z,8.55
2022-10-05T06:05:15.834Z,8.62
2022-10-05T06:06:15.823Z,8.66
2022-10-05T06:07:15.810Z,8.70
2022-10-05T06:09:15.785Z,8.77
2022-10-05T06:10:15.769Z,8.70
2022-10-05T06:11:15.758Z,8.70
2022-10-05T06:12:15.743Z,8.63
2022-10-05T06:13:15.732Z,8.74
2022-10-05T06:14:15.719Z,8.79
2022-10-05T06:15:15.707Z,8.79
2022-10-05T06:16:15.761Z,8.84
2022-10-05T06:17:15.682Z,8.94
2022-10-05T06:18:15.668Z,9.04
2022-10-05T06:20:15.648Z,9.09
2022-10-05T06:21:15.630Z,9.05
2022-10-05T06:22:15.616Z,9.10
2022-10-05T06:23:15.605Z,9.17
2022-10-05T06:24:15.590Z,9.22
2022-10-05T06:25:15.580Z,9.28
2022-10-05T06:26:15.565Z,9.35
2022-10-05T06:27:15.557Z,9.17
2022-10-05T06:28:15.587Z,9.16
2022-10-05T06:29:15.527Z,9.14
2022-10-05T06:31:15.528Z,9.25
2022-10-05T06:32:15.506Z,9.17
2022-10-05T06:33:15.472Z,9.22
2022-10-05T06:34:15.456Z,9.28
2022-10-05T06:35:15.451Z,9.34
2022-10-05T06:36:15.429Z,9.38
2022-10-05T06:37:15.418Z,9.46
2022-10-05T06:38:15.411Z,9.50
2022-10-05T06:39:15.390Z,9.56
2022-10-05T06:40:15.377Z,9.64
2022-10-05T06:42:15.347Z,9.77
2022-10-05T06:43:15.336Z,9.84
2022-10-05T06:44:15.325Z,9.87
2022-10-05T06:45:15.309Z,9.93
2022-10-05T06:46:15.383Z,9.90
2022-10-05T06:47:15.283Z,9.91
2022-10-05T06:48:15.291Z,10.01
2022-10-05T06:49:15.262Z,10.12
2022-10-05T06:50:15.241Z,10.22
2022-10-05T06:51:15.232Z,10.08
2022-10-05T06:53:15.204Z,9.97
2022-10-05T06:54:15.188Z,9.96
2022-10-05T06:55:15.186Z,9.96
2022-10-05T06:56:15.166Z,10.04
2022-10-05T06:57:15.150Z,10.12
2022-10-05T06:58:15.135Z,10.22
2022-10-05T06:59:15.124Z,10.27
2022-10-05T07:00:15.110Z,10.34
2022-10-05T07:01:15.209Z,10.34
2022-10-05T07:02:15.126Z,10.33
2022-10-05T07:04:15.094Z,10.42
2022-10-05T07:05:15.044Z,10.42
2022-10-05T07:06:15.031Z,10.47
2022-10-05T07:07:15.020Z,10.51
2022-10-05T07:08:15.005Z,10.54
2022-10-05T07:09:14.994Z,10.48
2022-10-05T07:10:14.979Z,10.45
2022-10-05T07:11:14.967Z,10.48
2022-10-05T07:12:14.952Z,10.48
2022-10-05T07:13:14.940Z,10.47
2022-10-05T07:15:14.917Z,10.47
2022-10-05T07:16:14.976Z,10.54
2022-10-05T07:17:14.888Z,10.58
2022-10-05T07:18:14.873Z,10.67
2022-10-05T07:19:14.863Z,10.73
2022-10-05T07:20:14.871Z,10.77
2022-10-05T07:21:14.845Z,10.95
2022-10-05T07:22:14.821Z,11.01
2022-10-05T07:23:14.810Z,11.08
2022-10-05T07:24:14.795Z,11.25
2022-10-05T07:26:14.768Z,11.44
2022-10-05T07:27:14.756Z,11.46
2022-10-05T07:28:14.815Z,11.54
2022-10-05T07:29:14.729Z,11.62
2022-10-05T07:30:14.718Z,11.70
2022-10-05T07:31:14.802Z,11.72
2022-10-05T07:32:14.691Z,11.73
2022-10-05T07:33:14.680Z,11.93
2022-10-05T07:34:14.664Z,11.98
2022-10-05T07:35:14.653Z,12.00
2022-10-05T07:37:14.631Z,12.33
2022-10-05T07:38:14.620Z,12.56
2022-10-05T07:39:14.602Z,12.82
2022-10-05T07:40:14.584Z,12.87
2022-10-05T07:41:14.574Z,13.17
2022-10-05T07:42:14.561Z,13.33
2022-10-05T07:43:14.558Z,13.62
2022-10-05T07:44:14.531Z,14.01
2022-10-05T07:45:14.520Z,14.22
2022-10-05T07:46:14.585Z,14.43
2022-10-05T07:48:14.483Z,14.70
2022-10-05T07:49:14.469Z,14.83
2022-10-05T07:50:14.456Z,15.49
2022-10-05T07:51:14.440Z,15.76
2022-10-05T07:52:14.494Z,15.20
2022-10-05T07:53:14.416Z,14.80
2022-10-05T07:54:14.401Z,14.90
2022-10-05T07:55:14.391Z,15.09
2022-10-05T07:56:14.373Z,15.92
2022-10-05T07:57:14.367Z,15.59
2022-10-05T07:59:14.337Z,14.85
2022-10-05T08:00:14.520Z,15.83
2022-10-05T08:01:14.310Z,16.63
2022-10-05T08:02:14.491Z,17.44
2022-10-05T08:03:14.351Z,18.32
2022-10-05T08:04:14.269Z,19.12
2022-10-05T08:05:14.260Z,19.21
2022-10-05T08:06:14.246Z,19.83
2022-10-05T08:07:14.295Z,19.77
2022-10-05T08:08:16.746Z,19.65
2022-10-05T08:10:14.251Z,20.41
2022-10-05T08:11:14.181Z,20.43
2022-10-05T08:12:14.169Z,20.14
2022-10-05T08:13:14.158Z,19.67
2022-10-05T08:14:14.141Z,19.27
2022-10-05T08:15:14.130Z,18.87
2022-10-05T08:16:14.137Z,18.29
2022-10-05T08:17:14.102Z,18.04
2022-10-05T08:18:14.086Z,17.86
2022-10-05T08:19:14.076Z,17.41
2022-10-05T08:21:14.053Z,17.40
2022-10-05T08:22:14.042Z,17.62
2022-10-05T08:23:14.027Z,17.74
2022-10-05T08:24:14.039Z,17.67
2022-10-05T08:25:14.000Z,17.69
2022-10-05T08:26:13.986Z,17.55
2022-10-05T08:27:13.975Z,17.56
2022-10-05T08:28:13.988Z,17.56
2022-10-05T08:29:14.191Z,17.40
2022-10-05T08:30:14.081Z,17.56
2022-10-05T08:32:13.909Z,17.73
2022-10-05T08:33:13.897Z,17.69
2022-10-05T08:34:13.881Z,17.49
2022-10-05T08:35:13.870Z,17.49
2022-10-05T08:36:13.856Z,17.43
2022-10-05T08:37:13.845Z,17.22
2022-10-05T08:38:13.830Z,17.19
2022-10-05T08:39:13.818Z,17.31
2022-10-05T08:40:13.825Z,17.21
2022-10-05T08:41:13.790Z,17.19
2022-10-05T08:43:13.766Z,17.14
2022-10-05T08:44:13.751Z,17.28
2022-10-05T08:45:13.738Z,17.25
2022-10-05T08:46:13.826Z,17.23
2022-10-05T08:47:13.714Z,17.11
2022-10-05T08:48:13.700Z,17.03
2022-10-05T08:49:13.687Z,17.03
2022-10-05T08:50:13.674Z,17.12
2022-10-05T08:51:13.666Z,17.16
2022-10-05T08:52:13.648Z,17.21
2022-10-05T08:54:13.620Z,17.22
2022-10-05T08:55:13.609Z,16.98
2022-10-05T08:56:19.085Z,16.93
2022-10-05T08:57:15.581Z,17.03
2022-10-05T08:58:13.569Z,17.11
2022-10-05T08:59:13.557Z,17.19
2022-10-05T09:00:13.549Z,17.36
2022-10-05T09:01:13.620Z,17.59
2022-10-05T09:02:13.577Z,17.91
2022-10-05T09:03:13.504Z,18.06
2022-10-05T09:05:13.478Z,18.62
2022-10-05T09:06:13.463Z,18.78
2022-10-05T09:07:13.452Z,18.88
2022-10-05T09:08:13.437Z,19.06
2022-10-05T09:09:13.425Z,18.82
2022-10-05T09:10:13.413Z,18.63
2022-10-05T09:11:13.400Z,18.72
2022-10-05T09:12:13.409Z,19.02
2022-10-05T09:13:13.373Z,19.43
2022-10-05T09:14:13.359Z,19.47
2022-10-05T09:16:13.402Z,19.47
2022-10-05T09:17:13.321Z,19.49
2022-10-05T09:18:13.305Z,19.65
2022-10-05T09:19:13.294Z,19.61
2022-10-05T09:20:13.279Z,19.58
2022-10-05T09:21:13.269Z,19.55
2022-10-05T09:22:13.292Z,19.43
2022-10-05T09:23:13.244Z,19.60
2022-10-05T09:24:13.227Z,19.72
2022-10-05T09:25:13.219Z,19.76
2022-10-05T09:27:13.190Z,19.91
2022-10-05T09:28:13.329Z,20.08
2022-10-05T09:29:13.165Z,20.41
2022-10-05T09:30:13.155Z,20.76
2022-10-05T09:31:13.194Z,21.00
2022-10-05T09:32:16.496Z,21.32
2022-10-05T09:33:13.113Z,21.29
2022-10-05T09:34:13.098Z,21.17
2022-10-05T09:35:13.090Z,21.21
2022-10-05T09:36:13.071Z,21.11
2022-10-05T09:38:13.046Z,21.00
2022-10-05T09:39:13.034Z,21.03
2022-10-05T09:40:13.020Z,21.32
2022-10-05T09:41:13.007Z,21.37
2022-10-05T09:42:12.992Z,21.61
2022-10-05T09:43:12.979Z,21.72
2022-10-05T09:44:12.989Z,21.93
2022-10-05T09:45:15.545Z,22.05
2022-10-05T09:46:13.012Z,22.21
2022-10-05T09:47:12.931Z,22.02
2022-10-05T09:49:12.902Z,22.06
2022-10-05T09:50:12.895Z,21.19
2022-10-05T09:51:12.875Z,22.73
2022-10-05T09:52:17.962Z,23.32
2022-10-05T09:53:12.851Z,23.84
2022-10-05T09:54:12.841Z,24.49
2022-10-05T09:55:12.826Z,25.82
2022-10-05T09:56:12.814Z,26.59
2022-10-05T09:57:12.799Z,27.21
2022-10-05T09:58:12.797Z,27.14
2022-10-05T10:00:12.797Z,25.67
2022-10-05T10:01:29.007Z,24.40
2022-10-05T10:02:14.901Z,24.68
2022-10-05T10:03:12.833Z,25.23
2022-10-05T10:04:12.716Z,25.16
2022-10-05T10:05:12.707Z,25.01
2022-10-05T10:06:12.698Z,25.64
2022-10-05T10:07:12.683Z,25.23
2022-10-05T10:08:12.678Z,25.26
2022-10-05T10:09:12.657Z,25.55
2022-10-05T10:11:12.636Z,25.23
2022-10-05T10:12:12.629Z,24.50
2022-10-05T10:13:12.614Z,24.42
2022-10-05T10:14:12.605Z,24.35
2022-10-05T10:15:12.591Z,24.52
2022-10-05T10:16:12.698Z,24.82
2022-10-05T10:17:12.573Z,24.06
2022-10-05T10:18:12.568Z,24.03
2022-10-05T10:19:12.577Z,24.25
2022-10-05T10:20:12.538Z,24.68
2022-10-05T10:22:12.515Z,23.79
2022-10-05T10:23:12.500Z,24.34
2022-10-05T10:24:12.490Z,24.67
2022-10-05T10:25:12.474Z,23.89
2022-10-05T10:26:12.468Z,24.13
2022-10-05T10:27:12.451Z,24.34
2022-10-05T10:28:12.487Z,23.92
2022-10-05T10:29:12.427Z,23.74
2022-10-05T10:30:12.418Z,24.27
2022-10-05T10:31:12.436Z,22.98
2022-10-05T10:33:12.383Z,22.08
2022-10-05T10:34:12.370Z,22.80
2022-10-05T10:35:12.359Z,23.71
2022-10-05T10:36:12.348Z,23.97
2022-10-05T10:37:12.335Z,24.50
2022-10-05T10:38:12.324Z,24.50
2022-10-05T10:39:12.311Z,24.46
2022-10-05T10:40:12.326Z,24.31
2022-10-05T10:41:12.294Z,23.92
2022-10-05T10:42:12.278Z,22.76
2022-10-05T10:44:12.254Z,23.46
2022-10-05T10:45:12.240Z,24.43
2022-10-05T10:46:12.316Z,24.72
2022-10-05T10:47:12.218Z,25.47
2022-10-05T10:48:12.235Z,25.50
2022-10-05T10:49:12.195Z,25.75
2022-10-05T10:50:12.187Z,26.05
2022-10-05T10:51:12.172Z,25.97
2022-10-05T10:52:12.166Z,25.46
2022-10-05T10:53:12.149Z,25.58
2022-10-05T10:55:12.127Z,25.39
2022-10-05T10:56:12.116Z,25.23
2022-10-05T10:57:12.105Z,25.12
2022-10-05T10:58:15.918Z,25.35
2022-10-05T10:59:12.081Z,25.55
2022-10-05T11:00:12.078Z,25.19
2022-10-05T11:01:12.059Z,25.27
2022-10-05T11:02:12.097Z,24.50
2022-10-05T11:03:12.126Z,24.80
2022-10-05T11:04:12.078Z,25.39
2022-10-05T11:06:12.009Z,25.85
2022-10-05T11:07:12.000Z,26.19
2022-10-05T11:08:11.984Z,26.54
2022-10-05T11:09:11.973Z,25.83
2022-10-05T11:10:11.962Z,25.47
2022-10-05T11:11:11.949Z,26.10
2022-10-05T11:12:11.935Z,26.49
2022-10-05T11:13:11.923Z,25.98
2022-10-05T11:14:11.912Z,26.75
2022-10-05T11:15:11.900Z,26.47
2022-10-05T11:17:11.876Z,26.24
2022-10-05T11:18:11.863Z,25.54
2022-10-05T11:19:11.852Z,25.32
2022-10-05T11:20:11.865Z,25.67
2022-10-05T11:21:11.829Z,25.69
2022-10-05T11:22:11.819Z,24.52
2022-10-05T11:23:11.806Z,24.89
2022-10-05T11:24:11.796Z,25.02
2022-10-05T11:25:11.782Z,24.90
2022-10-05T11:26:11.779Z,25.22
2022-10-05T11:28:11.825Z,25.04
2022-10-05T11:29:11.761Z,25.09
2022-10-05T11:30:11.731Z,25.62
2022-10-05T11:31:11.766Z,25.88
2022-10-05T11:32:11.706Z,25.65
2022-10-05T11:33:11.696Z,24.90
2022-10-05T11:34:11.685Z,24.87
2022-10-05T11:35:11.674Z,25.75
2022-10-05T11:36:11.688Z,25.73
2022-10-05T11:37:11.649Z,26.28
2022-10-05T11:39:11.627Z,26.09
2022-10-05T11:40:11.618Z,25.65
2022-10-05T11:41:11.604Z,25.58
2022-10-05T11:42:11.595Z,25.29
2022-10-05T11:43:11.583Z,24.71
2022-10-05T11:44:11.570Z,23.82
2022-10-05T11:45:11.558Z,23.27
2022-10-05T11:46:11.603Z,23.62
2022-10-05T11:47:11.535Z,23.97
2022-10-05T11:48:11.523Z,23.56
2022-10-05T11:50:11.497Z,23.38
2022-10-05T11:51:11.485Z,23.31
2022-10-05T11:52:11.515Z,23.35
2022-10-05T11:53:11.460Z,24.37
2022-10-05T11:54:11.450Z,24.39
2022-10-05T11:55:12.364Z,24.89
2022-10-05T11:56:11.428Z,24.95
2022-10-05T11:57:11.411Z,24.50
2022-10-05T11:58:11.399Z,24.82
2022-10-05T11:59:11.398Z,25.46
2022-10-05T12:01:11.361Z,23.77
2022-10-05T12:02:11.352Z,22.54
2022-10-05T12:03:11.440Z,22.46
2022-10-05T12:04:11.488Z,22.24
2022-10-05T12:05:11.310Z,23.17
2022-10-05T12:06:11.300Z,24.10
2022-10-05T12:07:11.284Z,23.59
2022-10-05T12:08:11.341Z,23.20
2022-10-05T12:09:11.261Z,22.42
2022-10-05T12:10:11.256Z,22.05
2022-10-05T12:12:11.225Z,21.87
2022-10-05T12:13:11.210Z,22.11
2022-10-05T12:14:11.201Z,23.09
2022-10-05T12:15:11.186Z,23.27
2022-10-05T12:16:11.220Z,23.19
2022-10-05T12:17:11.161Z,22.97
2022-10-05T12:18:11.148Z,22.73
2022-10-05T12:19:11.134Z,22.67
2022-10-05T12:20:11.125Z,22.29
2022-10-05T12:21:11.110Z,21.98
2022-10-05T12:23:11.085Z,21.98
2022-10-05T12:24:11.113Z,22.42
2022-10-05T12:25:11.060Z,22.45
2022-10-05T12:26:11.049Z,22.82
2022-10-05T12:27:11.033Z,23.72
2022-10-05T12:28:11.090Z,24.46
2022-10-05T12:29:11.013Z,24.55
2022-10-05T12:30:10.996Z,25.27
2022-10-05T12:31:11.028Z,25.75
2022-10-05T12:32:10.973Z,25.41
2022-10-05T12:34:10.948Z,25.64
2022-10-05T12:35:10.936Z,26.19
2022-10-05T12:36:10.923Z,26.34
2022-10-05T12:37:10.913Z,25.79
2022-10-05T12:38:10.898Z,26.32
2022-10-05T12:39:10.884Z,26.92
2022-10-05T12:40:10.896Z,26.62
2022-10-05T12:41:10.861Z,25.80
2022-10-05T12:42:10.849Z,25.72
2022-10-05T12:43:10.834Z,25.08
2022-10-05T12:45:10.811Z,25.41
2022-10-05T12:46:10.834Z,25.14
2022-10-05T12:47:10.785Z,24.62
2022-10-05T12:48:10.774Z,24.83
2022-10-05T12:49:10.760Z,25.55
2022-10-05T12:50:10.748Z,26.43
2022-10-05T12:51:10.735Z,26.43
2022-10-05T12:52:10.729Z,27.10
2022-10-05T12:53:10.709Z,26.95
2022-10-05T12:54:10.702Z,27.41
2022-10-05T12:56:10.946Z,27.51
2022-10-05T12:57:10.660Z,27.54
2022-10-05T12:58:10.650Z,27.43
2022-10-05T12:59:10.636Z,27.84
2022-10-05T13:00:10.624Z,28.17
2022-10-05T13:01:10.655Z,28.21
2022-10-05T13:02:10.660Z,27.74
2022-10-05T13:03:10.585Z,28.21
2022-10-05T13:04:10.575Z,28.44
2022-10-05T13:05:10.561Z,28.71
2022-10-05T13:07:10.539Z,27.51
2022-10-05T13:08:10.525Z,26.81
2022-10-05T13:09:10.514Z,26.51
2022-10-05T13:10:10.500Z,24.87
2022-10-05T13:11:14.879Z,25.52
2022-10-05T13:12:10.542Z,25.82
2022-10-05T13:13:10.462Z,25.80
2022-10-05T13:14:10.450Z,26.29
2022-10-05T13:15:10.437Z,26.65
2022-10-05T13:16:11.102Z,26.88
2022-10-05T13:18:10.399Z,25.95
2022-10-05T13:19:10.387Z,26.01
2022-10-05T13:20:10.375Z,25.80
2022-10-05T13:21:10.361Z,25.24
2022-10-05T13:22:10.351Z,25.04
2022-10-05T13:23:10.335Z,24.89
2022-10-05T13:24:10.323Z,25.14
2022-10-05T13:25:10.310Z,26.28
2022-10-05T13:26:10.663Z,26.53
2022-10-05T13:27:10.286Z,27.06
2022-10-05T13:29:10.260Z,28.34
2022-10-05T13:30:10.255Z,28.10
2022-10-05T13:31:10.298Z,28.20
2022-10-05T13:32:10.229Z,28.62
2022-10-05T13:33:10.209Z,28.34
2022-10-05T13:34:10.198Z,27.65
2022-10-05T13:35:11.659Z,27.66
2022-10-05T13:36:10.489Z,26.47
2022-10-05T13:37:10.158Z,26.20
2022-10-05T13:38:10.148Z,26.24
2022-10-05T13:40:10.122Z,26.87
2022-10-05T13:41:10.112Z,27.41
2022-10-05T13:42:10.095Z,27.40
2022-10-05T13:43:10.081Z,27.56
2022-10-05T13:44:10.096Z,27.71
2022-10-05T13:45:10.059Z,27.78
2022-10-05T13:46:10.154Z,28.21
2022-10-05T13:47:10.037Z,28.05
2022-10-05T13:48:10.024Z,28.34
2022-10-05T13:49:10.011Z,28.40
2022-10-05T13:51:09.984Z,28.01
2022-10-05T13:52:09.969Z,27.74
2022-10-05T13:53:09.955Z,27.50
2022-10-05T13:54:09.943Z,27.07
2022-10-05T13:55:09.928Z,26.80
2022-10-05T13:56:09.919Z,26.54
2022-10-05T13:57:09.904Z,26.13
2022-10-05T13:58:09.892Z,25.57
2022-10-05T13:59:09.877Z,25.72
2022-10-05T14:00:09.943Z,25.88
2022-10-05T14:02:09.874Z,27.51
2022-10-05T14:03:09.866Z,27.61
2022-10-05T14:04:09.815Z,27.56
2022-10-05T14:05:09.806Z,27.32
2022-10-05T14:06:09.791Z,27.41
2022-10-05T14:07:09.781Z,27.10
2022-10-05T14:08:09.767Z,26.42
2022-10-05T14:09:09.756Z,26.81
2022-10-05T14:10:09.800Z,26.89
2022-10-05T14:11:09.732Z,26.97
2022-10-05T14:13:09.706Z,26.71
2022-10-05T14:14:09.692Z,26.68
2022-10-05T14:15:09.680Z,26.91
2022-10-05T14:16:09.726Z,26.95
2022-10-05T14:17:09.666Z,26.79
2022-10-05T14:18:09.641Z,27.24
2022-10-05T14:19:09.628Z,27.64
2022-10-05T14:20:09.632Z,27.71
2022-10-05T14:21:09.608Z,28.36
2022-10-05T14:22:09.588Z,28.10
2022-10-05T14:24:15.293Z,28.03